sensor_id;sensor_type;location;lat;lon;timestamp;pressure;altitude;pressure_sealevel;temperature;humidity
63281;BME280;49406;51.044;3.766;2023-04-22T00:01:51;100868.91;;;6.12;100.00
63281;BME280;49406;51.044;3.766;2023-04-22T00:04:25;100867.41;;;6.14;100.00
63281;BME280;49406;51.044;3.766;2023-04-22T00:06:58;100866.80;;;6.17;100.00
63281;BME280;49406;51.044;3.766;2023-04-22T00:09:33;100865.48;;;6.20;100.00
63281;BME280;49406;51.044;3.766;2023-04-22T00:12:08;100867.77;;;6.21;100.00
63281;BME280;49406;51.044;3.766;2023-04-22T00:14:43;100864.33;;;6.22;100.00
63281;BME280;49406;51.044;3.766;2023-04-22T00:17:18;100863.49;;;6.23;100.00
63281;BME280;49406;51.044;3.766;2023-04-22T00:19:53;100861.47;;;6.19;100.00
63281;BME280;49406;51.044;3.766;2023-04-22T00:22:28;100860.60;;;6.20;100.00
63281;BME280;49406;51.044;3.766;2023-04-22T00:25:03;100865.10;;;6.18;100.00
63281;BME280;49406;51.044;3.766;2023-04-22T00:27:38;100861.44;;;6.24;100.00
63281;BME280;49406;51.044;3.766;2023-04-22T00:30:14;100862.13;;;6.30;100.00
63281;BME280;49406;51.044;3.766;2023-04-22T00:32:48;100863.17;;;6.31;100.00
63281;BME280;49406;51.044;3.766;2023-04-22T00:35:23;100863.25;;;6.34;100.00
63281;BME280;49406;51.044;3.766;2023-04-22T00:37:58;100864.95;;;6.39;100.00
63281;BME280;49406;51.044;3.766;2023-04-22T00:40:32;100866.61;;;6.43;100.00
63281;BME280;49406;51.044;3.766;2023-04-22T00:43:08;100865.12;;;6.47;100.00
63281;BME280;49406;51.044;3.766;2023-04-22T00:45:45;100860.16;;;6.49;100.00
63281;BME280;49406;51.044;3.766;2023-04-22T00:48:20;100852.66;;;6.48;100.00
63281;BME280;49406;51.044;3.766;2023-04-22T00:50:55;100857.36;;;6.55;100.00
63281;BME280;49406;51.044;3.766;2023-04-22T00:53:29;100851.34;;;6.57;100.00
63281;BME280;49406;51.044;3.766;2023-04-22T00:56:04;100851.47;;;6.63;100.00
63281;BME280;49406;51.044;3.766;2023-04-22T00:58:39;100849.98;;;6.66;100.00
63281;BME280;49406;51.044;3.766;2023-04-22T01:01:14;100855.16;;;6.65;100.00
63281;BME280;49406;51.044;3.766;2023-04-22T01:03:50;100856.89;;;6.64;100.00
63281;BME280;49406;51.044;3.766;2023-04-22T01:06:26;100858.64;;;6.72;100.00
63281;BME280;49406;51.044;3.766;2023-04-22T01:09:02;100862.23;;;6.77;100.00
63281;BME280;49406;51.044;3.766;2023-04-22T01:11:37;100860.81;;;6.76;100.00
63281;BME280;49406;51.044;3.766;2023-04-22T01:14:12;100856.65;;;6.76;100.00
63281;BME280;49406;51.044;3.766;2023-04-22T01:16:47;100848.30;;;6.75;100.00
63281;BME280;49406;51.044;3.766;2023-04-22T01:19:22;100841.04;;;6.77;100.00
63281;BME280;49406;51.044;3.766;2023-04-22T01:21:57;100839.79;;;6.83;100.00
63281;BME280;49406;51.044;3.766;2023-04-22T01:24:33;100839.28;;;6.84;100.00
63281;BME280;49406;51.044;3.766;2023-04-22T01:27:08;100834.10;;;6.77;100.00
63281;BME280;49406;51.044;3.766;2023-04-22T01:29:43;100834.90;;;6.74;100.00
63281;BME280;49406;51.044;3.766;2023-04-22T01:32:17;100833.06;;;6.71;100.00
63281;BME280;49406;51.044;3.766;2023-04-22T01:34:52;100833.02;;;6.76;100.00
63281;BME280;49406;51.044;3.766;2023-04-22T01:37:28;100830.54;;;6.74;100.00
63281;BME280;49406;51.044;3.766;2023-04-22T01:40:04;100832.86;;;6.70;100.00
63281;BME280;49406;51.044;3.766;2023-04-22T01:42:39;100831.48;;;6.70;100.00
63281;BME280;49406;51.044;3.766;2023-04-22T01:45:15;100833.92;;;6.71;100.00
63281;BME280;49406;51.044;3.766;2023-04-22T01:47:49;100831.37;;;6.72;100.00
63281;BME280;49406;51.044;3.766;2023-04-22T01:50:24;100829.99;;;6.73;100.00
63281;BME280;49406;51.044;3.766;2023-04-22T01:52:59;100824.98;;;6.74;100.00
63281;BME280;49406;51.044;3.766;2023-04-22T01:55:33;100826.78;;;6.77;100.00
63281;BME280;49406;51.044;3.766;2023-04-22T01:58:09;100831.88;;;6.79;100.00
63281;BME280;49406;51.044;3.766;2023-04-22T02:00:44;100834.41;;;6.83;100.00
63281;BME280;49406;51.044;3.766;2023-04-22T02:03:19;100824.24;;;6.79;100.00
63281;BME280;49406;51.044;3.766;2023-04-22T02:05:54;100821.09;;;6.71;100.00
63281;BME280;49406;51.044;3.766;2023-04-22T02:08:29;100827.47;;;6.70;100.00
63281;BME280;49406;51.044;3.766;2023-04-22T02:11:04;100826.45;;;6.63;100.00
63281;BME280;49406;51.044;3.766;2023-04-22T02:13:39;100833.09;;;6.71;100.00
63281;BME280;49406;51.044;3.766;2023-04-22T02:16:14;100833.45;;;6.72;100.00
63281;BME280;49406;51.044;3.766;2023-04-22T02:18:49;100827.96;;;6.68;100.00
63281;BME280;49406;51.044;3.766;2023-04-22T02:21:24;100824.46;;;6.67;100.00
63281;BME280;49406;51.044;3.766;2023-04-22T02:23:58;100826.67;;;6.65;100.00
63281;BME280;49406;51.044;3.766;2023-04-22T02:26:33;100821.61;;;6.63;100.00
63281;BME280;49406;51.044;3.766;2023-04-22T02:29:08;100814.31;;;6.63;100.00
63281;BME280;49406;51.044;3.766;2023-04-22T02:31:43;100812.27;;;6.65;100.00
63281;BME280;49406;51.044;3.766;2023-04-22T02:34:17;100812.14;;;6.68;100.00
63281;BME280;49406;51.044;3.766;2023-04-22T02:36:52;100807.64;;;6.69;100.00
63281;BME280;49406;51.044;3.766;2023-04-22T02:39:27;100795.40;;;6.65;100.00
63281;BME280;49406;51.044;3.766;2023-04-22T02:42:01;100803.23;;;6.66;100.00
63281;BME280;49406;51.044;3.766;2023-04-22T02:44:36;100804.33;;;6.60;100.00
63281;BME280;49406;51.044;3.766;2023-04-22T02:47:11;100804.23;;;6.55;100.00
63281;BME280;49406;51.044;3.766;2023-04-22T02:49:46;100802.95;;;6.61;100.00
63281;BME280;49406;51.044;3.766;2023-04-22T02:52:20;100799.30;;;6.69;100.00
63281;BME280;49406;51.044;3.766;2023-04-22T02:54:55;100791.82;;;6.68;100.00
63281;BME280;49406;51.044;3.766;2023-04-22T02:57:30;100787.68;;;6.69;100.00
63281;BME280;49406;51.044;3.766;2023-04-22T03:00:06;100784.65;;;6.73;100.00
63281;BME280;49406;51.044;3.766;2023-04-22T03:02:41;100787.15;;;6.76;100.00
63281;BME280;49406;51.044;3.766;2023-04-22T03:05:16;100788.09;;;6.72;100.00
63281;BME280;49406;51.044;3.766;2023-04-22T03:07:50;100788.80;;;6.64;100.00
63281;BME280;49406;51.044;3.766;2023-04-22T03:10:25;100783.19;;;6.62;100.00
63281;BME280;49406;51.044;3.766;2023-04-22T03:13:00;100777.53;;;6.58;100.00
63281;BME280;49406;51.044;3.766;2023-04-22T03:15:34;100785.80;;;6.62;100.00
63281;BME280;49406;51.044;3.766;2023-04-22T03:18:09;100785.32;;;6.72;100.00
63281;BME280;49406;51.044;3.766;2023-04-22T03:20:44;100781.94;;;6.76;100.00
63281;BME280;49406;51.044;3.766;2023-04-22T03:23:18;100778.86;;;6.78;100.00
63281;BME280;49406;51.044;3.766;2023-04-22T03:25:53;100772.66;;;6.81;100.00
63281;BME280;49406;51.044;3.766;2023-04-22T03:28:28;100774.39;;;6.81;100.00
63281;BME280;49406;51.044;3.766;2023-04-22T03:31:02;100767.02;;;6.86;100.00
63281;BME280;49406;51.044;3.766;2023-04-22T03:33:38;100760.91;;;6.91;100.00
63281;BME280;49406;51.044;3.766;2023-04-22T03:36:13;100751.33;;;6.90;100.00
63281;BME280;49406;51.044;3.766;2023-04-22T03:38:48;100751.07;;;6.87;100.00
63281;BME280;49406;51.044;3.766;2023-04-22T03:41:23;100755.42;;;6.79;100.00
63281;BME280;49406;51.044;3.766;2023-04-22T03:43:58;100757.34;;;6.72;100.00
63281;BME280;49406;51.044;3.766;2023-04-22T03:46:33;100753.13;;;6.70;100.00
63281;BME280;49406;51.044;3.766;2023-04-22T03:49:08;100745.86;;;6.79;100.00
63281;BME280;49406;51.044;3.766;2023-04-22T03:51:42;100737.60;;;6.83;100.00
63281;BME280;49406;51.044;3.766;2023-04-22T03:54:17;100737.88;;;6.79;100.00
63281;BME280;49406;51.044;3.766;2023-04-22T03:56:51;100733.98;;;6.76;100.00
63281;BME280;49406;51.044;3.766;2023-04-22T03:59:26;100724.70;;;6.72;100.00
63281;BME280;49406;51.044;3.766;2023-04-22T04:01:59;100716.66;;;6.71;100.00
63281;BME280;49406;51.044;3.766;2023-04-22T04:04:34;100710.50;;;6.67;100.00
63281;BME280;49406;51.044;3.766;2023-04-22T04:07:09;100717.08;;;6.65;100.00
63281;BME280;49406;51.044;3.766;2023-04-22T04:09:43;100712.86;;;6.63;100.00
63281;BME280;49406;51.044;3.766;2023-04-22T04:12:18;100702.70;;;6.60;100.00
63281;BME280;49406;51.044;3.766;2023-04-22T04:14:53;100698.88;;;6.59;100.00
63281;BME280;49406;51.044;3.766;2023-04-22T04:17:26;100705.81;;;6.58;100.00
63281;BME280;49406;51.044;3.766;2023-04-22T04:20:01;100709.06;;;6.56;100.00
63281;BME280;49406;51.044;3.766;2023-04-22T04:22:35;100718.30;;;6.58;100.00
63281;BME280;49406;51.044;3.766;2023-04-22T04:25:10;100715.33;;;6.50;100.00
63281;BME280;49406;51.044;3.766;2023-04-22T04:27:45;100718.95;;;6.49;100.00
63281;BME280;49406;51.044;3.766;2023-04-22T04:30:19;100716.13;;;6.47;100.00
63281;BME280;49406;51.044;3.766;2023-04-22T04:32:54;100717.35;;;6.47;100.00
63281;BME280;49406;51.044;3.766;2023-04-22T04:35:30;100702.23;;;6.54;100.00
63281;BME280;49406;51.044;3.766;2023-04-22T04:38:06;100695.13;;;6.55;100.00
63281;BME280;49406;51.044;3.766;2023-04-22T04:40:41;100701.15;;;6.60;100.00
63281;BME280;49406;51.044;3.766;2023-04-22T04:43:17;100705.09;;;6.66;100.00
63281;BME280;49406;51.044;3.766;2023-04-22T04:45:52;100703.98;;;6.71;100.00
63281;BME280;49406;51.044;3.766;2023-04-22T04:48:27;100706.02;;;6.76;100.00
63281;BME280;49406;51.044;3.766;2023-04-22T04:51:01;100705.78;;;6.82;100.00
63281;BME280;49406;51.044;3.766;2023-04-22T04:53:36;100709.51;;;6.77;100.00
63281;BME280;49406;51.044;3.766;2023-04-22T04:56:11;100711.10;;;6.71;100.00
63281;BME280;49406;51.044;3.766;2023-04-22T04:58:46;100708.70;;;6.63;100.00
63281;BME280;49406;51.044;3.766;2023-04-22T05:01:20;100709.77;;;6.66;100.00
63281;BME280;49406;51.044;3.766;2023-04-22T05:03:55;100714.77;;;6.71;100.00
63281;BME280;49406;51.044;3.766;2023-04-22T05:06:30;100713.19;;;6.71;100.00
63281;BME280;49406;51.044;3.766;2023-04-22T05:09:05;100713.52;;;6.70;100.00
63281;BME280;49406;51.044;3.766;2023-04-22T05:11:40;100703.96;;;6.70;100.00
63281;BME280;49406;51.044;3.766;2023-04-22T05:14:15;100705.39;;;6.71;100.00
63281;BME280;49406;51.044;3.766;2023-04-22T05:16:49;100705.42;;;6.72;100.00
63281;BME280;49406;51.044;3.766;2023-04-22T05:19:24;100709.98;;;6.74;100.00
63281;BME280;49406;51.044;3.766;2023-04-22T05:21:59;100701.59;;;6.80;100.00
63281;BME280;49406;51.044;3.766;2023-04-22T05:24:33;100698.82;;;6.89;100.00
63281;BME280;49406;51.044;3.766;2023-04-22T05:27:08;100707.69;;;6.89;100.00
63281;BME280;49406;51.044;3.766;2023-04-22T05:29:43;100711.61;;;6.87;100.00
63281;BME280;49406;51.044;3.766;2023-04-22T05:32:18;100715.60;;;6.86;100.00
63281;BME280;49406;51.044;3.766;2023-04-22T05:34:52;100718.38;;;6.94;100.00
63281;BME280;49406;51.044;3.766;2023-04-22T05:37:27;100727.55;;;7.09;100.00
63281;BME280;49406;51.044;3.766;2023-04-22T05:40:02;100728.56;;;7.16;100.00
63281;BME280;49406;51.044;3.766;2023-04-22T05:42:35;100723.55;;;7.18;100.00
63281;BME280;49406;51.044;3.766;2023-04-22T05:45:11;100713.35;;;7.21;100.00
63281;BME280;49406;51.044;3.766;2023-04-22T05:47:45;100705.08;;;7.23;100.00
63281;BME280;49406;51.044;3.766;2023-04-22T05:50:20;100696.54;;;7.15;100.00
63281;BME280;49406;51.044;3.766;2023-04-22T05:52:55;100697.86;;;7.20;100.00
63281;BME280;49406;51.044;3.766;2023-04-22T05:55:29;100701.33;;;7.28;100.00
63281;BME280;49406;51.044;3.766;2023-04-22T05:58:04;100704.42;;;7.36;100.00
63281;BME280;49406;51.044;3.766;2023-04-22T06:00:39;100700.69;;;7.40;100.00
63281;BME280;49406;51.044;3.766;2023-04-22T06:03:13;100694.50;;;7.44;100.00
63281;BME280;49406;51.044;3.766;2023-04-22T06:05:48;100700.88;;;7.40;100.00
63281;BME280;49406;51.044;3.766;2023-04-22T06:08:23;100710.30;;;7.42;100.00
63281;BME280;49406;51.044;3.766;2023-04-22T06:10:57;100718.42;;;7.58;100.00
63281;BME280;49406;51.044;3.766;2023-04-22T06:13:32;100723.23;;;7.65;100.00
63281;BME280;49406;51.044;3.766;2023-04-22T06:16:07;100736.41;;;7.72;100.00
63281;BME280;49406;51.044;3.766;2023-04-22T06:18:42;100727.83;;;7.77;100.00
63281;BME280;49406;51.044;3.766;2023-04-22T06:21:17;100714.55;;;7.86;100.00
63281;BME280;49406;51.044;3.766;2023-04-22T06:23:52;100703.23;;;7.95;100.00
63281;BME280;49406;51.044;3.766;2023-04-22T06:26:28;100702.45;;;8.01;100.00
63281;BME280;49406;51.044;3.766;2023-04-22T06:29:03;100690.42;;;8.00;100.00
63281;BME280;49406;51.044;3.766;2023-04-22T06:31:37;100682.00;;;8.07;100.00
63281;BME280;49406;51.044;3.766;2023-04-22T06:34:12;100679.73;;;8.18;100.00
63281;BME280;49406;51.044;3.766;2023-04-22T06:36:46;100676.35;;;8.24;100.00
63281;BME280;49406;51.044;3.766;2023-04-22T06:39:21;100672.60;;;8.29;100.00
63281;BME280;49406;51.044;3.766;2023-04-22T06:41:56;100674.48;;;8.38;100.00
63281;BME280;49406;51.044;3.766;2023-04-22T06:44:29;100673.55;;;8.44;100.00
63281;BME280;49406;51.044;3.766;2023-04-22T06:47:04;100677.77;;;8.48;100.00
63281;BME280;49406;51.044;3.766;2023-04-22T06:49:39;100683.77;;;8.53;100.00
63281;BME280;49406;51.044;3.766;2023-04-22T06:52:15;100693.77;;;8.57;100.00
63281;BME280;49406;51.044;3.766;2023-04-22T06:54:50;100698.08;;;8.67;100.00
63281;BME280;49406;51.044;3.766;2023-04-22T06:57:24;100699.24;;;8.76;100.00
63281;BME280;49406;51.044;3.766;2023-04-22T06:59:59;100684.00;;;8.84;100.00
63281;BME280;49406;51.044;3.766;2023-04-22T07:02:34;100681.44;;;8.89;100.00
63281;BME280;49406;51.044;3.766;2023-04-22T07:05:09;100682.25;;;8.96;100.00
63281;BME280;49406;51.044;3.766;2023-04-22T07:07:44;100679.77;;;9.09;100.00
63281;BME280;49406;51.044;3.766;2023-04-22T07:10:18;100676.46;;;9.24;100.00
63281;BME280;49406;51.044;3.766;2023-04-22T07:12:53;100674.98;;;9.32;100.00
63281;BME280;49406;51.044;3.766;2023-04-22T07:15:28;100678.39;;;9.41;100.00
63281;BME280;49406;51.044;3.766;2023-04-22T07:18:03;100673.05;;;9.49;100.00
63281;BME280;49406;51.044;3.766;2023-04-22T07:20:36;100671.77;;;9.59;100.00
63281;BME280;49406;51.044;3.766;2023-04-22T07:23:10;100669.14;;;9.77;100.00
63281;BME280;49406;51.044;3.766;2023-04-22T07:25:45;100662.38;;;9.85;100.00
63281;BME280;49406;51.044;3.766;2023-04-22T07:28:20;100658.80;;;9.95;100.00
63281;BME280;49406;51.044;3.766;2023-04-22T07:30:55;100659.04;;;10.05;100.00
63281;BME280;49406;51.044;3.766;2023-04-22T07:33:30;100649.59;;;10.04;100.00
63281;BME280;49406;51.044;3.766;2023-04-22T07:36:05;100634.83;;;10.14;100.00
63281;BME280;49406;51.044;3.766;2023-04-22T07:38:38;100622.92;;;10.32;100.00
63281;BME280;49406;51.044;3.766;2023-04-22T07:41:13;100610.07;;;10.46;100.00
63281;BME280;49406;51.044;3.766;2023-04-22T07:43:48;100617.29;;;10.61;100.00
63281;BME280;49406;51.044;3.766;2023-04-22T07:46:23;100628.92;;;10.78;100.00
63281;BME280;49406;51.044;3.766;2023-04-22T07:48:57;100610.80;;;11.02;100.00
63281;BME280;49406;51.044;3.766;2023-04-22T07:51:32;100604.72;;;11.19;100.00
63281;BME280;49406;51.044;3.766;2023-04-22T07:54:07;100614.91;;;11.46;100.00
63281;BME280;49406;51.044;3.766;2023-04-22T07:56:41;100620.34;;;11.53;100.00
63281;BME280;49406;51.044;3.766;2023-04-22T07:59:16;100625.94;;;11.57;100.00
63281;BME280;49406;51.044;3.766;2023-04-22T08:01:51;100635.06;;;11.61;100.00
63281;BME280;49406;51.044;3.766;2023-04-22T08:04:26;100630.67;;;11.67;100.00
63281;BME280;49406;51.044;3.766;2023-04-22T08:07:00;100638.38;;;11.73;100.00
63281;BME280;49406;51.044;3.766;2023-04-22T08:09:36;100638.59;;;11.84;100.00
63281;BME280;49406;51.044;3.766;2023-04-22T08:12:10;100641.90;;;12.09;100.00
63281;BME280;49406;51.044;3.766;2023-04-22T08:14:46;100646.23;;;12.38;100.00
63281;BME280;49406;51.044;3.766;2023-04-22T08:17:21;100658.76;;;12.70;100.00
63281;BME280;49406;51.044;3.766;2023-04-22T08:19:56;100663.06;;;12.92;100.00
63281;BME280;49406;51.044;3.766;2023-04-22T08:22:30;100673.66;;;13.21;100.00
63281;BME280;49406;51.044;3.766;2023-04-22T08:25:07;100684.04;;;13.49;100.00
63281;BME280;49406;51.044;3.766;2023-04-22T08:27:42;100682.43;;;13.78;100.00
63281;BME280;49406;51.044;3.766;2023-04-22T08:30:16;100691.57;;;14.00;100.00
63281;BME280;49406;51.044;3.766;2023-04-22T08:32:51;100693.41;;;14.13;100.00
63281;BME280;49406;51.044;3.766;2023-04-22T08:35:26;100703.98;;;14.28;100.00
63281;BME280;49406;51.044;3.766;2023-04-22T08:38:01;100705.88;;;14.33;100.00
63281;BME280;49406;51.044;3.766;2023-04-22T08:40:36;100708.21;;;14.27;100.00
63281;BME280;49406;51.044;3.766;2023-04-22T08:43:13;100705.41;;;14.06;100.00
63281;BME280;49406;51.044;3.766;2023-04-22T08:45:49;100714.29;;;13.95;100.00
63281;BME280;49406;51.044;3.766;2023-04-22T08:48:24;100727.00;;;13.87;100.00
63281;BME280;49406;51.044;3.766;2023-04-22T08:51:00;100725.53;;;13.70;100.00
63281;BME280;49406;51.044;3.766;2023-04-22T08:53:34;100717.55;;;13.55;100.00
63281;BME280;49406;51.044;3.766;2023-04-22T08:56:09;100714.45;;;13.43;100.00
63281;BME280;49406;51.044;3.766;2023-04-22T08:58:45;100710.47;;;13.33;100.00
63281;BME280;49406;51.044;3.766;2023-04-22T09:01:21;100711.22;;;13.20;100.00
63281;BME280;49406;51.044;3.766;2023-04-22T09:03:58;100709.88;;;13.01;100.00
63281;BME280;49406;51.044;3.766;2023-04-22T09:06:33;100706.95;;;12.85;100.00
63281;BME280;49406;51.044;3.766;2023-04-22T09:09:08;100692.45;;;12.67;100.00
63281;BME280;49406;51.044;3.766;2023-04-22T09:11:43;100685.12;;;12.55;100.00
63281;BME280;49406;51.044;3.766;2023-04-22T09:14:17;100680.77;;;12.37;100.00
63281;BME280;49406;51.044;3.766;2023-04-22T09:16:52;100675.54;;;12.20;100.00
63281;BME280;49406;51.044;3.766;2023-04-22T09:19:27;100666.09;;;12.08;100.00
63281;BME280;49406;51.044;3.766;2023-04-22T09:22:01;100656.11;;;11.98;100.00
63281;BME280;49406;51.044;3.766;2023-04-22T09:24:36;100661.90;;;11.94;100.00
63281;BME280;49406;51.044;3.766;2023-04-22T09:27:11;100665.56;;;11.88;100.00
63281;BME280;49406;51.044;3.766;2023-04-22T09:29:50;100673.63;;;11.81;100.00
63281;BME280;49406;51.044;3.766;2023-04-22T09:32:25;100689.52;;;11.66;100.00
63281;BME280;49406;51.044;3.766;2023-04-22T09:35:01;100702.96;;;11.50;100.00
63281;BME280;49406;51.044;3.766;2023-04-22T09:37:36;100717.85;;;11.45;100.00
63281;BME280;49406;51.044;3.766;2023-04-22T09:40:15;100728.01;;;11.48;100.00
63281;BME280;49406;51.044;3.766;2023-04-22T09:42:53;100714.52;;;11.52;100.00
63281;BME280;49406;51.044;3.766;2023-04-22T09:45:32;100692.98;;;11.46;100.00
63281;BME280;49406;51.044;3.766;2023-04-22T09:48:09;100687.02;;;11.43;100.00
63281;BME280;49406;51.044;3.766;2023-04-22T09:50:46;100689.48;;;11.47;100.00
63281;BME280;49406;51.044;3.766;2023-04-22T09:53:22;100706.11;;;11.51;100.00
63281;BME280;49406;51.044;3.766;2023-04-22T09:55:57;100705.77;;;11.52;100.00
63281;BME280;49406;51.044;3.766;2023-04-22T09:58:31;100689.48;;;11.55;100.00
63281;BME280;49406;51.044;3.766;2023-04-22T10:01:06;100672.15;;;11.55;100.00
63281;BME280;49406;51.044;3.766;2023-04-22T10:03:41;100644.50;;;11.50;100.00
63281;BME280;49406;51.044;3.766;2023-04-22T10:06:16;100632.42;;;11.46;100.00
63281;BME280;49406;51.044;3.766;2023-04-22T10:08:51;100618.77;;;11.51;100.00
63281;BME280;49406;51.044;3.766;2023-04-22T10:11:25;100647.30;;;11.56;100.00
63281;BME280;49406;51.044;3.766;2023-04-22T10:14:00;100654.48;;;11.65;100.00
63281;BME280;49406;51.044;3.766;2023-04-22T10:16:36;100653.61;;;11.75;100.00
63281;BME280;49406;51.044;3.766;2023-04-22T10:19:15;100662.41;;;11.84;100.00
63281;BME280;49406;51.044;3.766;2023-04-22T10:21:54;100673.96;;;11.89;100.00
63281;BME280;49406;51.044;3.766;2023-04-22T10:24:35;100680.63;;;11.84;100.00
63281;BME280;49406;51.044;3.766;2023-04-22T10:27:10;100703.70;;;11.72;100.00
63281;BME280;49406;51.044;3.766;2023-04-22T10:29:45;100722.08;;;11.74;100.00
63281;BME280;49406;51.044;3.766;2023-04-22T10:32:26;100740.12;;;11.71;100.00
63281;BME280;49406;51.044;3.766;2023-04-22T10:35:12;100737.48;;;11.57;100.00
63281;BME280;49406;51.044;3.766;2023-04-22T10:37:47;100708.91;;;11.46;100.00
63281;BME280;49406;51.044;3.766;2023-04-22T10:40:22;100685.95;;;11.38;100.00
63281;BME280;49406;51.044;3.766;2023-04-22T10:42:59;100687.34;;;11.34;100.00
63281;BME280;49406;51.044;3.766;2023-04-22T10:45:35;100668.27;;;11.29;100.00
63281;BME280;49406;51.044;3.766;2023-04-22T10:48:10;100664.73;;;11.22;100.00
63281;BME280;49406;51.044;3.766;2023-04-22T10:50:46;100673.83;;;11.17;100.00
63281;BME280;49406;51.044;3.766;2023-04-22T10:53:38;100692.73;;;11.18;100.00
63281;BME280;49406;51.044;3.766;2023-04-22T10:56:17;100708.48;;;11.24;100.00
63281;BME280;49406;51.044;3.766;2023-04-22T10:58:52;100691.02;;;11.27;100.00
63281;BME280;49406;51.044;3.766;2023-04-22T11:01:29;100674.52;;;11.17;100.00
63281;BME280;49406;51.044;3.766;2023-04-22T11:04:19;100682.73;;;11.12;100.00
63281;BME280;49406;51.044;3.766;2023-04-22T11:07:15;100692.02;;;11.16;100.00
63281;BME280;49406;51.044;3.766;2023-04-22T11:10:10;100697.13;;;11.25;100.00
63281;BME280;49406;51.044;3.766;2023-04-22T11:12:49;100696.45;;;11.35;100.00
63281;BME280;49406;51.044;3.766;2023-04-22T11:15:24;100686.31;;;11.44;100.00
63281;BME280;49406;51.044;3.766;2023-04-22T11:17:59;100682.14;;;11.56;100.00
63281;BME280;49406;51.044;3.766;2023-04-22T11:20:34;100685.83;;;11.65;100.00
63281;BME280;49406;51.044;3.766;2023-04-22T11:23:08;100687.93;;;11.68;100.00
63281;BME280;49406;51.044;3.766;2023-04-22T11:25:43;100695.46;;;11.73;100.00
63281;BME280;49406;51.044;3.766;2023-04-22T11:28:16;100699.31;;;11.74;100.00
63281;BME280;49406;51.044;3.766;2023-04-22T11:31:01;100712.10;;;11.71;100.00
63281;BME280;49406;51.044;3.766;2023-04-22T11:33:36;100702.47;;;11.75;100.00
63281;BME280;49406;51.044;3.766;2023-04-22T11:36:12;100697.97;;;11.79;100.00
63281;BME280;49406;51.044;3.766;2023-04-22T11:38:54;100692.89;;;11.88;100.00
63281;BME280;49406;51.044;3.766;2023-04-22T11:41:29;100697.27;;;12.02;100.00
63281;BME280;49406;51.044;3.766;2023-04-22T11:44:03;100690.61;;;12.14;100.00
63281;BME280;49406;51.044;3.766;2023-04-22T11:46:38;100686.39;;;12.29;100.00
63281;BME280;49406;51.044;3.766;2023-04-22T11:49:14;100681.10;;;12.43;100.00
63281;BME280;49406;51.044;3.766;2023-04-22T11:51:55;100678.98;;;12.52;100.00
63281;BME280;49406;51.044;3.766;2023-04-22T11:54:34;100682.65;;;12.59;100.00
63281;BME280;49406;51.044;3.766;2023-04-22T11:57:09;100681.40;;;12.67;100.00
63281;BME280;49406;51.044;3.766;2023-04-22T11:59:57;100679.08;;;12.78;100.00
63281;BME280;49406;51.044;3.766;2023-04-22T12:02:32;100677.65;;;12.85;100.00
63281;BME280;49406;51.044;3.766;2023-04-22T12:05:10;100678.27;;;13.05;100.00
63281;BME280;49406;51.044;3.766;2023-04-22T12:07:45;100683.55;;;13.02;100.00
63281;BME280;49406;51.044;3.766;2023-04-22T12:10:19;100689.02;;;12.94;100.00
63281;BME280;49406;51.044;3.766;2023-04-22T12:12:56;100693.98;;;12.82;100.00
63281;BME280;49406;51.044;3.766;2023-04-22T12:15:40;100702.59;;;12.77;100.00
63281;BME280;49406;51.044;3.766;2023-04-22T12:18:15;100705.40;;;12.81;100.00
63281;BME280;49406;51.044;3.766;2023-04-22T12:20:49;100708.38;;;12.82;100.00
63281;BME280;49406;51.044;3.766;2023-04-22T12:23:24;100708.73;;;12.81;100.00
63281;BME280;49406;51.044;3.766;2023-04-22T12:26:00;100709.08;;;12.75;100.00
63281;BME280;49406;51.044;3.766;2023-04-22T12:28:35;100711.54;;;12.76;100.00
63281;BME280;49406;51.044;3.766;2023-04-22T12:31:10;100711.89;;;12.82;100.00
63281;BME280;49406;51.044;3.766;2023-04-22T12:33:46;100716.41;;;12.90;100.00
63281;BME280;49406;51.044;3.766;2023-04-22T12:36:21;100714.88;;;12.77;100.00
63281;BME280;49406;51.044;3.766;2023-04-22T12:38:56;100710.14;;;12.72;100.00
63281;BME280;49406;51.044;3.766;2023-04-22T12:41:30;100710.66;;;12.73;100.00
63281;BME280;49406;51.044;3.766;2023-04-22T12:44:04;100712.77;;;12.80;100.00
63281;BME280;49406;51.044;3.766;2023-04-22T12:46:40;100715.58;;;12.81;100.00
63281;BME280;49406;51.044;3.766;2023-04-22T12:49:15;100718.69;;;12.89;100.00
63281;BME280;49406;51.044;3.766;2023-04-22T12:51:49;100718.63;;;13.09;100.00
63281;BME280;49406;51.044;3.766;2023-04-22T12:54:24;100714.05;;;13.13;100.00
63281;BME280;49406;51.044;3.766;2023-04-22T12:56:59;100716.37;;;13.01;100.00
63281;BME280;49406;51.044;3.766;2023-04-22T12:59:35;100718.63;;;13.08;100.00
63281;BME280;49406;51.044;3.766;2023-04-22T13:02:09;100720.55;;;13.18;100.00
63281;BME280;49406;51.044;3.766;2023-04-22T13:04:44;100729.48;;;13.19;100.00
63281;BME280;49406;51.044;3.766;2023-04-22T13:07:19;100733.89;;;13.13;100.00
63281;BME280;49406;51.044;3.766;2023-04-22T13:09:54;100736.55;;;13.02;100.00
63281;BME280;49406;51.044;3.766;2023-04-22T13:12:29;100743.77;;;12.95;100.00
63281;BME280;49406;51.044;3.766;2023-04-22T13:15:04;100736.08;;;12.85;100.00
63281;BME280;49406;51.044;3.766;2023-04-22T13:17:39;100742.95;;;12.76;100.00
63281;BME280;49406;51.044;3.766;2023-04-22T13:20:14;100740.88;;;12.55;100.00
63281;BME280;49406;51.044;3.766;2023-04-22T13:22:49;100747.91;;;12.37;100.00
63281;BME280;49406;51.044;3.766;2023-04-22T13:25:24;100744.59;;;12.19;100.00
63281;BME280;49406;51.044;3.766;2023-04-22T13:27:58;100752.65;;;12.16;100.00